Time;durP1;ratioP1;P1;durP2;ratioP2;P2;SDS_P1;SDS_P2;PMS_P1;PMS_P2;Temp;Humidity;BMP_temperature;BMP_pressure;BME280_temperature;BME280_humidity;BME280_pressure;Samples;Min_cycle;Max_cycle;Signal;HPM_P1;HPM_P2
2022/04/14 00:01:16;;;;;;;0.93;0.93;;;11.60;99.90;;;;;;5092559;28;20020;-70
2022/04/14 00:03:42;;;;;;;1.08;0.45;;;11.50;99.90;;;;;;5093601;28;20020;-74
2022/04/14 00:06:07;;;;;;;2.67;1.25;;;11.50;99.90;;;;;;5094357;28;20036;-70
2022/04/14 00:08:33;;;;;;;0.03;0.03;;;11.40;99.90;;;;;;5108124;28;20023;-70
2022/04/14 00:10:59;;;;;;;1.05;0.98;;;11.40;99.90;;;;;;5113669;28;20027;-73
2022/04/14 00:13:25;;;;;;;0.38;0.20;;;11.40;99.90;;;;;;5114141;28;20440;-70
2022/04/14 00:15:50;;;;;;;1.00;0.73;;;11.40;99.90;;;;;;5114081;28;20024;-70
2022/04/14 00:18:16;;;;;;;0.00;0.00;;;11.40;99.90;;;;;;5112463;28;20065;-72
2022/04/14 00:20:42;;;;;;;0.10;0.10;;;11.40;99.90;;;;;;5092833;28;20028;-73
2022/04/14 00:23:11;;;;;;;0.10;0.10;;;11.40;99.90;;;;;;5093488;28;20032;-70
2022/04/14 00:25:37;;;;;;;1.90;1.23;;;11.40;99.90;;;;;;5093502;28;20020;-70
2022/04/14 00:28:02;;;;;;;0.05;0.05;;;11.40;99.90;;;;;;5093557;28;20028;-70
2022/04/14 00:30:28;;;;;;;0.28;0.28;;;11.40;99.90;;;;;;5092982;28;20031;-71
2022/04/14 00:32:54;;;;;;;0.10;0.10;;;11.40;99.90;;;;;;5093555;28;20032;-70
2022/04/14 00:35:19;;;;;;;0.00;0.00;;;11.40;99.90;;;;;;5093003;28;20024;-70
2022/04/14 00:37:45;;;;;;;0.28;0.25;;;11.40;99.90;;;;;;5093305;28;20441;-70
2022/04/14 00:40:11;;;;;;;0.10;0.10;;;11.30;99.90;;;;;;5093273;28;20031;-71
2022/04/14 00:42:37;;;;;;;0.10;0.10;;;11.30;99.90;;;;;;5075203;28;20032;-74
2022/04/14 00:45:03;;;;;;;0.03;0.03;;;11.30;99.90;;;;;;5088359;28;20434;-72
2022/04/14 00:47:29;;;;;;;0.15;0.15;;;11.20;99.90;;;;;;5073106;28;20038;-72
2022/04/14 00:49:55;;;;;;;1.02;0.40;;;11.10;99.90;;;;;;5072678;28;20025;-76
2022/04/14 00:52:26;;;;;;;0.10;0.10;;;11.10;99.90;;;;;;5072015;28;20406;-73
2022/04/14 00:54:51;;;;;;;0.32;0.32;;;11.10;99.90;;;;;;5073207;28;20506;-76
2022/04/14 00:57:17;;;;;;;0.57;0.32;;;11.10;99.90;;;;;;5072728;28;20103;-72
2022/04/14 00:59:43;;;;;;;0.13;0.10;;;11.10;99.90;;;;;;5072764;28;20104;-72
2022/04/14 01:02:09;;;;;;;0.00;0.00;;;11.10;99.90;;;;;;5072589;28;20051;-72
2022/04/14 01:04:35;;;;;;;0.00;0.00;;;11.20;99.90;;;;;;5072810;28;20487;-72
2022/04/14 01:07:02;;;;;;;0.10;0.10;;;11.30;99.90;;;;;;5073282;28;20037;-72
2022/04/14 01:09:29;;;;;;;0.10;0.10;;;11.30;99.90;;;;;;5072666;28;20025;-76
2022/04/14 01:11:55;;;;;;;0.13;0.10;;;11.30;99.90;;;;;;5073051;28;20486;-75
2022/04/14 01:14:26;;;;;;;0.43;0.20;;;11.30;99.90;;;;;;5075922;28;20028;-76
2022/04/14 01:16:57;;;;;;;2.65;1.75;;;11.20;99.90;;;;;;5077218;28;20094;-75
2022/04/14 01:19:23;;;;;;;0.43;0.43;;;11.10;99.90;;;;;;5066290;28;20048;-76
2022/04/14 01:22:16;;;;;;;0.70;0.45;;;11.10;99.90;;;;;;5056112;28;20033;-73
2022/04/14 01:24:43;;;;;;;0.22;0.22;;;11.00;99.90;;;;;;5056903;28;20028;-72
2022/04/14 01:27:08;;;;;;;0.00;0.00;;;11.00;99.90;;;;;;5056308;28;20389;-76
2022/04/14 01:29:34;;;;;;;0.10;0.10;;;11.00;99.90;;;;;;5056094;28;20036;-72
2022/04/14 01:32:02;;;;;;;0.00;0.00;;;10.90;99.90;;;;;;5056748;28;20530;-73
2022/04/14 01:34:32;;;;;;;3.88;0.50;;;10.90;99.90;;;;;;5056080;28;20018;-76
2022/04/14 01:37:00;;;;;;;1.02;0.43;;;10.90;99.90;;;;;;5059112;28;20530;-76
2022/04/14 01:39:27;;;;;;;0.63;0.63;;;10.90;99.90;;;;;;5076118;28;20021;-75
2022/04/14 01:41:52;;;;;;;0.38;0.38;;;10.90;99.90;;;;;;5076214;28;20502;-75
2022/04/14 01:44:21;;;;;;;1.08;0.73;;;10.90;99.90;;;;;;5076527;28;20029;-76
2022/04/14 01:46:47;;;;;;;0.20;0.20;;;10.90;99.90;;;;;;5095491;28;20051;-72
2022/04/14 01:49:12;;;;;;;0.03;0.03;;;11.00;99.90;;;;;;5095763;28;20431;-73
2022/04/14 01:51:39;;;;;;;0.00;0.00;;;11.00;99.90;;;;;;5096349;28;20028;-74
2022/04/14 01:54:05;;;;;;;0.00;0.00;;;11.00;99.90;;;;;;5080479;28;20016;-72
2022/04/14 01:56:31;;;;;;;0.05;0.05;;;11.00;99.90;;;;;;5074925;28;20078;-76
2022/04/14 01:58:57;;;;;;;0.30;0.30;;;11.00;99.90;;;;;;5076074;28;20524;-75
2022/04/14 02:01:23;;;;;;;0.30;0.17;;;10.90;99.90;;;;;;5075616;28;20052;-72
2022/04/14 02:03:49;;;;;;;1.52;0.88;;;10.90;99.90;;;;;;5074934;28;20686;-72
2022/04/14 02:06:15;;;;;;;0.40;0.40;;;10.90;99.90;;;;;;5076354;28;20116;-76
2022/04/14 02:08:41;;;;;;;6.18;1.42;;;10.80;99.90;;;;;;5075550;28;20020;-76
2022/04/14 02:11:10;;;;;;;2.08;0.70;;;10.70;99.90;;;;;;5075077;28;20107;-72
2022/04/14 02:13:36;;;;;;;4.85;1.35;;;10.70;99.90;;;;;;5075270;28;20408;-76
2022/04/14 02:16:02;;;;;;;0.10;0.10;;;10.60;99.90;;;;;;5075619;28;20498;-72
2022/04/14 02:18:28;;;;;;;0.30;0.20;;;10.60;99.90;;;;;;5057243;28;20025;-76
2022/04/14 02:20:53;;;;;;;0.17;0.15;;;10.60;99.90;;;;;;5074936;28;20595;-76
2022/04/14 02:23:19;;;;;;;0.75;0.55;;;10.60;99.90;;;;;;5074975;28;20038;-72
2022/04/14 02:25:46;;;;;;;0.80;0.32;;;10.50;99.90;;;;;;5074845;28;20391;-72
2022/04/14 02:28:13;;;;;;;0.43;0.43;;;10.60;99.90;;;;;;5075351;28;20024;-75
2022/04/14 02:30:39;;;;;;;0.70;0.70;;;10.60;99.90;;;;;;5075174;28;20024;-74
2022/04/14 02:33:05;;;;;;;0.10;0.10;;;10.60;99.90;;;;;;5075037;28;20024;-72
2022/04/14 02:35:30;;;;;;;0.63;0.45;;;10.60;99.90;;;;;;5075187;28;20411;-75
2022/04/14 02:37:56;;;;;;;0.30;0.10;;;10.60;99.90;;;;;;5075070;28;20373;-75
2022/04/14 02:40:24;;;;;;;3.20;0.60;;;10.60;99.90;;;;;;5075148;28;20032;-72
2022/04/14 02:42:50;;;;;;;2.15;0.28;;;10.60;99.90;;;;;;5075113;28;20025;-72
2022/04/14 02:45:16;;;;;;;0.10;0.10;;;10.60;99.90;;;;;;5075100;28;20402;-75
2022/04/14 02:47:41;;;;;;;0.45;0.45;;;10.50;99.90;;;;;;5074912;28;20373;-75
2022/04/14 02:50:08;;;;;;;0.70;0.63;;;10.40;99.90;;;;;;5073882;28;20033;-72
2022/04/14 02:52:34;;;;;;;0.13;0.13;;;10.40;99.90;;;;;;5074690;28;20519;-72
2022/04/14 02:54:59;;;;;;;8.30;1.15;;;10.30;99.90;;;;;;5056830;28;20036;-72
2022/04/14 02:57:25;;;;;;;0.15;0.13;;;10.20;99.90;;;;;;5074622;28;20025;-72
2022/04/14 02:59:51;;;;;;;21.40;0.63;;;10.20;99.90;;;;;;5074866;28;20059;-72
2022/04/14 03:02:16;;;;;;;8.20;2.15;;;10.30;99.90;;;;;;5074485;28;20388;-72
2022/04/14 03:04:42;;;;;;;0.30;0.30;;;10.30;99.90;;;;;;5074677;28;20029;-72
2022/04/14 03:07:08;;;;;;;0.25;0.10;;;10.30;99.90;;;;;;5077146;28;20479;-72
2022/04/14 03:09:33;;;;;;;0.10;0.10;;;10.30;99.90;;;;;;5094529;28;20082;-76
2022/04/14 03:11:59;;;;;;;0.40;0.38;;;10.30;99.90;;;;;;5094037;28;20031;-72
2022/04/14 03:14:25;;;;;;;0.00;0.00;;;10.30;99.90;;;;;;5094203;28;20032;-75
2022/04/14 03:16:50;;;;;;;1.23;0.95;;;10.20;99.90;;;;;;5094899;28;20522;-76
2022/04/14 03:19:16;;;;;;;2.05;0.65;;;10.20;99.90;;;;;;5084918;28;20079;-76
2022/04/14 03:21:41;;;;;;;0.50;0.50;;;10.20;99.90;;;;;;5073531;28;20099;-76
2022/04/14 03:24:07;;;;;;;0.40;0.40;;;10.10;99.90;;;;;;5093124;28;20028;-72
2022/04/14 03:26:33;;;;;;;0.00;0.00;;;10.10;99.90;;;;;;5094530;28;20020;-72
2022/04/14 03:28:58;;;;;;;0.10;0.10;;;10.00;99.90;;;;;;5094150;28;20036;-76
2022/04/14 03:31:24;;;;;;;1.45;0.88;;;10.00;99.90;;;;;;5094006;28;20486;-72
2022/04/14 03:33:50;;;;;;;2.65;0.40;;;9.90;99.90;;;;;;5094046;28;20032;-76
2022/04/14 03:36:15;;;;;;;0.47;0.47;;;9.90;99.90;;;;;;5093465;28;20395;-75
2022/04/14 03:38:41;;;;;;;0.05;0.05;;;9.90;99.90;;;;;;5076550;28;20032;-75
2022/04/14 03:41:07;;;;;;;0.38;0.30;;;9.90;99.90;;;;;;5074240;28;20028;-72
2022/04/14 03:43:36;;;;;;;0.00;0.00;;;9.90;99.90;;;;;;5074070;28;20029;-76
2022/04/14 03:46:03;;;;;;;1.55;0.25;;;9.90;99.90;;;;;;5087229;28;20036;-72
2022/04/14 03:48:29;;;;;;;0.10;0.10;;;9.90;99.90;;;;;;5093708;28;20402;-75
2022/04/14 03:50:55;;;;;;;0.10;0.10;;;9.90;99.90;;;;;;5094020;28;20024;-72
2022/04/14 03:53:21;;;;;;;0.28;0.28;;;10.10;99.90;;;;;;5093509;28;20572;-76
2022/04/14 03:55:47;;;;;;;0.10;0.10;;;10.10;99.90;;;;;;5093645;28;20062;-72
2022/04/14 03:58:16;;;;;;;0.17;0.17;;;10.20;99.90;;;;;;5093790;28;20020;-76
2022/04/14 04:00:42;;;;;;;2.45;1.17;;;10.30;99.90;;;;;;5093433;28;20031;-76
2022/04/14 04:03:09;;;;;;;0.40;0.40;;;10.40;99.90;;;;;;5093230;28;20031;-74
2022/04/14 04:05:35;;;;;;;0.10;0.10;;;10.40;99.90;;;;;;5094363;28;20115;-72
2022/04/14 04:08:01;;;;;;;0.10;0.10;;;10.30;99.90;;;;;;5093729;28;20393;-75
2022/04/14 04:10:27;;;;;;;0.00;0.00;;;10.30;99.90;;;;;;5113620;28;20019;-76
2022/04/14 04:12:53;;;;;;;0.00;0.00;;;10.40;99.90;;;;;;5095384;28;20068;-72
2022/04/14 04:15:21;;;;;;;0.10;0.10;;;10.40;99.90;;;;;;5113793;28;20052;-75
2022/04/14 04:17:47;;;;;;;13.32;1.25;;;10.30;99.90;;;;;;5114025;28;20020;-72
2022/04/14 04:20:13;;;;;;;0.10;0.10;;;10.30;99.90;;;;;;5104359;28;20031;-72
2022/04/14 04:22:40;;;;;;;0.52;0.45;;;10.30;99.90;;;;;;5099576;28;20209;-76
2022/04/14 04:25:06;;;;;;;0.25;0.25;;;10.30;99.90;;;;;;5113705;28;20023;-72
2022/04/14 04:27:32;;;;;;;0.03;0.03;;;10.30;99.90;;;;;;5113941;28;20020;-75
2022/04/14 04:29:58;;;;;;;0.28;0.20;;;10.30;99.90;;;;;;5113542;28;20023;-73
2022/04/14 04:32:23;;;;;;;0.03;0.03;;;10.30;99.90;;;;;;5113585;28;20028;-72
2022/04/14 04:34:49;;;;;;;5.07;0.50;;;10.30;99.90;;;;;;5113596;28;20024;-76
2022/04/14 04:37:15;;;;;;;1.20;0.65;;;10.30;99.90;;;;;;5113503;28;20428;-72
2022/04/14 04:39:41;;;;;;;4.63;1.25;;;10.20;99.90;;;;;;5113695;28;20394;-75
2022/04/14 04:42:07;;;;;;;0.55;0.25;;;10.30;99.90;;;;;;5113794;28;20024;-72
2022/04/14 04:44:33;;;;;;;0.57;0.55;;;10.20;99.90;;;;;;5112729;28;20019;-72
2022/04/14 04:46:58;;;;;;;0.63;0.20;;;10.30;99.90;;;;;;5092889;28;20036;-74
2022/04/14 04:49:24;;;;;;;0.10;0.10;;;10.30;99.90;;;;;;5092646;28;20097;-76
2022/04/14 04:51:50;;;;;;;0.65;0.30;;;10.30;99.90;;;;;;5092929;28;20024;-73
2022/04/14 04:54:15;;;;;;;3.10;0.32;;;10.40;99.90;;;;;;5075856;28;20104;-72
2022/04/14 04:56:41;;;;;;;0.45;0.30;;;10.40;99.90;;;;;;5072717;28;20494;-76
2022/04/14 04:59:08;;;;;;;1.58;0.32;;;10.30;99.90;;;;;;5071335;28;20099;-73
2022/04/14 05:01:33;;;;;;;0.35;0.35;;;10.30;99.90;;;;;;5072556;28;20013;-76
2022/04/14 05:03:59;;;;;;;0.70;0.40;;;10.30;99.90;;;;;;5072246;28;20032;-76
2022/04/14 05:06:25;;;;;;;0.43;0.43;;;10.30;99.90;;;;;;5073009;28;20471;-72
2022/04/14 05:08:50;;;;;;;0.85;0.73;;;10.30;99.90;;;;;;5077838;28;20075;-72
2022/04/14 05:11:16;;;;;;;0.05;0.05;;;10.30;99.90;;;;;;5071893;28;20033;-76
2022/04/14 05:13:42;;;;;;;1.05;0.63;;;10.30;99.90;;;;;;5072256;28;20028;-72
2022/04/14 05:16:09;;;;;;;1.25;0.52;;;10.30;99.90;;;;;;5072456;28;20027;-72
2022/04/14 05:18:34;;;;;;;0.13;0.13;;;10.30;99.90;;;;;;5071613;28;20099;-72
2022/04/14 05:21:00;;;;;;;2.38;0.75;;;10.30;99.90;;;;;;5056489;28;20575;-72
2022/04/14 05:23:26;;;;;;;0.28;0.28;;;10.30;99.90;;;;;;5078414;28;20059;-73
2022/04/14 05:25:51;;;;;;;0.00;0.00;;;10.30;99.90;;;;;;5092656;28;20024;-72
2022/04/14 05:28:17;;;;;;;2.50;1.35;;;10.20;99.90;;;;;;5074278;28;20028;-76
2022/04/14 05:30:42;;;;;;;0.13;0.13;;;10.20;99.90;;;;;;5092437;28;20471;-72
2022/04/14 05:33:10;;;;;;;0.38;0.38;;;10.20;99.90;;;;;;5073602;28;20062;-72
2022/04/14 05:35:40;;;;;;;0.20;0.20;;;10.20;99.90;;;;;;5087645;28;20036;-72
2022/04/14 05:38:06;;;;;;;1.85;1.38;;;10.20;99.90;;;;;;5075089;28;20091;-75
2022/04/14 05:40:32;;;;;;;0.93;0.93;;;10.20;99.90;;;;;;5071864;28;20033;-72
2022/04/14 05:42:58;;;;;;;2.83;1.33;;;10.10;99.90;;;;;;5072379;28;20114;-75
2022/04/14 05:45:24;;;;;;;1.85;0.70;;;10.10;99.90;;;;;;5078982;28;20452;-73
2022/04/14 05:47:49;;;;;;;0.43;0.43;;;10.10;99.90;;;;;;5091962;28;20028;-72
2022/04/14 05:50:15;;;;;;;0.20;0.20;;;10.10;99.90;;;;;;5091395;28;20759;-76
2022/04/14 05:52:41;;;;;;;3.40;1.75;;;10.20;99.90;;;;;;5095383;28;20026;-72
2022/04/14 05:55:08;;;;;;;0.22;0.15;;;10.30;99.90;;;;;;5093642;28;20570;-73
2022/04/14 05:57:33;;;;;;;0.63;0.63;;;10.50;99.90;;;;;;5112504;28;20020;-72
2022/04/14 05:59:59;;;;;;;0.00;0.00;;;10.50;99.90;;;;;;5114206;28;20398;-72
2022/04/14 06:02:25;;;;;;;0.00;0.00;;;10.60;99.90;;;;;;5106786;28;20016;-76
2022/04/14 06:04:51;;;;;;;1.15;0.65;;;10.60;99.90;;;;;;5087143;28;20111;-76
2022/04/14 06:07:17;;;;;;;0.15;0.15;;;10.60;99.90;;;;;;5107572;28;20550;-76
2022/04/14 06:09:43;;;;;;;0.40;0.40;;;10.60;99.90;;;;;;5092900;28;20039;-73
2022/04/14 06:12:09;;;;;;;1.15;0.75;;;10.60;99.90;;;;;;5093283;28;20024;-72
2022/04/14 06:14:34;;;;;;;23.70;0.80;;;10.60;99.90;;;;;;5091773;28;20028;-76
2022/04/14 06:17:00;;;;;;;3.40;0.60;;;10.60;99.90;;;;;;5097951;28;20034;-76
2022/04/14 06:19:26;;;;;;;0.00;0.00;;;10.60;99.90;;;;;;5099769;28;20030;-73
2022/04/14 06:21:52;;;;;;;0.10;0.03;;;10.60;99.90;;;;;;5094312;28;20095;-73
2022/04/14 06:24:17;;;;;;;2.08;0.30;;;10.60;99.90;;;;;;5093663;28;20514;-73
2022/04/14 06:26:43;;;;;;;0.00;0.00;;;10.70;99.90;;;;;;5092032;28;20092;-73
2022/04/14 06:29:09;;;;;;;0.88;0.75;;;10.80;99.90;;;;;;5096863;28;20106;-76
2022/04/14 06:31:35;;;;;;;0.10;0.10;;;10.80;99.90;;;;;;5104408;28;20020;-76
2022/04/14 06:34:05;;;;;;;0.00;0.00;;;10.90;99.90;;;;;;5091703;28;20028;-76
2022/04/14 06:36:31;;;;;;;0.88;0.82;;;11.00;99.90;;;;;;5094572;28;20078;-73
2022/04/14 06:38:57;;;;;;;0.20;0.20;;;11.20;99.90;;;;;;5100702;28;20020;-70
2022/04/14 06:41:23;;;;;;;0.00;0.00;;;11.30;99.90;;;;;;5103731;28;20042;-73
2022/04/14 06:43:49;;;;;;;0.05;0.05;;;11.40;99.90;;;;;;5093705;28;20020;-73
2022/04/14 06:46:18;;;;;;;8.13;2.33;;;11.50;99.90;;;;;;5075167;28;20094;-70
2022/04/14 06:48:44;;;;;;;2.83;0.57;;;11.60;99.90;;;;;;5068386;28;20032;-70
2022/04/14 06:51:11;;;;;;;0.30;0.30;;;11.80;99.90;;;;;;5060553;28;20043;-73
2022/04/14 06:53:37;;;;;;;0.00;0.00;;;11.90;99.90;;;;;;5065503;28;20056;-74
2022/04/14 06:56:04;;;;;;;0.98;0.68;;;12.10;99.90;;;;;;5073052;28;20562;-70
2022/04/14 06:58:30;;;;;;;0.25;0.25;;;12.20;99.90;;;;;;5066530;28;20037;-70
2022/04/14 07:00:55;;;;;;;0.20;0.20;;;12.30;99.90;;;;;;5071127;28;20082;-74
2022/04/14 07:03:26;;;;;;;0.03;0.03;;;12.50;99.90;;;;;;5074283;28;20524;-71
2022/04/14 07:05:54;;;;;;;4.13;0.60;;;12.60;99.90;;;;;;5073506;28;20040;-74
2022/04/14 07:08:26;;;;;;;0.10;0.10;;;12.80;99.90;;;;;;5067819;28;20032;-74
2022/04/14 07:10:52;;;;;;;3.00;1.65;;;12.90;99.90;;;;;;5074646;28;20432;-73
2022/04/14 07:13:18;;;;;;;0.10;0.10;;;13.10;99.90;;;;;;5081823;28;20090;-73
2022/04/14 07:15:45;;;;;;;0.00;0.00;;;13.20;99.90;;;;;;5070573;28;20053;-73
2022/04/14 07:18:11;;;;;;;1.25;0.73;;;13.30;99.90;;;;;;5071427;28;20045;-73
2022/04/14 07:20:37;;;;;;;0.20;0.20;;;13.40;99.90;;;;;;5071219;28;20035;-76
2022/04/14 07:23:03;;;;;;;0.30;0.30;;;13.60;99.90;;;;;;5072459;28;20029;-76
2022/04/14 07:25:32;;;;;;;0.20;0.15;;;13.70;99.90;;;;;;5070844;28;20051;-73
2022/04/14 07:27:59;;;;;;;0.30;0.30;;;13.80;99.90;;;;;;5063720;28;20028;-71
2022/04/14 07:30:26;;;;;;;0.03;0.03;;;14.00;99.90;;;;;;5071741;28;20020;-71
2022/04/14 07:32:53;;;;;;;0.30;0.30;;;14.10;99.90;;;;;;5075136;28;20471;-71
2022/04/14 07:35:22;;;;;;;0.28;0.15;;;14.20;99.90;;;;;;5071092;28;20025;-74
2022/04/14 07:37:48;;;;;;;1.10;0.98;;;14.30;99.90;;;;;;5071296;28;20440;-71
2022/04/14 07:40:14;;;;;;;0.20;0.20;;;14.30;99.90;;;;;;5071365;28;20016;-75
2022/04/14 07:42:43;;;;;;;0.10;0.10;;;14.40;99.90;;;;;;5073268;28;20029;-70
2022/04/14 07:45:10;;;;;;;1.27;0.82;;;14.40;99.90;;;;;;5073579;28;20814;-72
2022/04/14 07:47:36;;;;;;;2.30;0.63;;;14.50;99.90;;;;;;5098194;28;20660;-73
2022/04/14 07:50:03;;;;;;;0.38;0.38;;;14.60;99.90;;;;;;5091745;28;20035;-72
2022/04/14 07:52:29;;;;;;;0.85;0.50;;;14.60;99.90;;;;;;5093443;28;20080;-72
2022/04/14 07:54:54;;;;;;;0.40;0.38;;;14.80;99.90;;;;;;5109100;28;20886;-76
2022/04/14 07:57:20;;;;;;;0.10;0.10;;;14.90;99.90;;;;;;5099328;28;20032;-72
2022/04/14 07:59:46;;;;;;;0.28;0.28;;;15.20;99.90;;;;;;5106620;28;20340;-76
2022/04/14 08:02:11;;;;;;;0.57;0.57;;;15.70;99.90;;;;;;5105720;28;20031;-72
2022/04/14 08:04:38;;;;;;;1.17;0.50;;;18.00;99.90;;;;;;5100093;28;20031;-71
2022/04/14 08:07:04;;;;;;;3.65;1.23;;;20.70;99.90;;;;;;5093519;28;20510;-73
2022/04/14 08:09:30;;;;;;;0.38;0.28;;;22.40;99.90;;;;;;5098543;28;20019;-73
2022/04/14 08:11:56;;;;;;;2.05;0.88;;;24.10;99.90;;;;;;5083923;28;20883;-75
2022/04/14 08:14:21;;;;;;;0.57;0.55;;;25.20;99.90;;;;;;5093643;28;20081;-74
2022/04/14 08:16:47;;;;;;;0.82;0.70;;;26.20;99.90;;;;;;5090503;28;20051;-74
2022/04/14 08:19:13;;;;;;;9.73;0.70;;;26.50;99.00;;;;;;5110543;28;20433;-74
2022/04/14 08:21:39;;;;;;;17.67;1.15;;;26.80;98.20;;;;;;5105306;28;20023;-74
2022/04/14 08:24:05;;;;;;;0.93;0.70;;;27.30;97.60;;;;;;5080770;28;20024;-74
2022/04/14 08:26:30;;;;;;;0.75;0.50;;;27.50;96.80;;;;;;5071616;28;20395;-75
2022/04/14 08:28:56;;;;;;;0.50;0.50;;;28.00;96.30;;;;;;5083655;28;20028;-75
2022/04/14 08:31:23;;;;;;;2.20;1.70;;;28.00;96.00;;;;;;5089798;28;20111;-74
2022/04/14 08:33:49;;;;;;;0.55;0.55;;;28.40;95.40;;;;;;5091496;28;20537;-74
2022/04/14 08:36:16;;;;;;;0.70;0.70;;;28.40;95.40;;;;;;5097451;28;20070;-74
2022/04/14 08:38:44;;;;;;;1.05;0.70;;;28.30;95.40;;;;;;5100513;28;20550;-75
2022/04/14 08:41:13;;;;;;;1.42;1.33;;;28.80;94.70;;;;;;5093767;28;20547;-74
2022/04/14 08:43:51;;;;;;;0.60;0.52;;;28.70;94.60;;;;;;5106658;28;20059;-75
2022/04/14 08:46:19;;;;;;;3.72;0.85;;;28.90;93.80;;;;;;5098896;28;20051;-75
2022/04/14 08:48:52;;;;;;;1.45;0.80;;;29.10;93.60;;;;;;5091511;28;20382;-75
2022/04/14 08:51:20;;;;;;;2.50;1.33;;;29.10;93.40;;;;;;5066903;28;20039;-75
2022/04/14 08:53:48;;;;;;;2.28;0.98;;;28.90;93.00;;;;;;5090311;28;20054;-75
2022/04/14 08:56:14;;;;;;;0.68;0.68;;;28.90;93.10;;;;;;5073536;28;20056;-75
2022/04/14 08:58:42;;;;;;;0.70;0.70;;;29.60;92.40;;;;;;5083726;28;20529;-74
2022/04/14 09:01:08;;;;;;;11.43;1.00;;;29.50;92.40;;;;;;5107465;28;20024;-74
2022/04/14 09:03:35;;;;;;;0.88;0.80;;;29.70;92.10;;;;;;5123478;28;20087;-75
2022/04/14 09:06:01;;;;;;;1.80;1.15;;;29.80;91.60;;;;;;5123644;28;20121;-76
2022/04/14 09:08:27;;;;;;;1.13;0.60;;;30.40;91.40;;;;;;5116310;28;20016;-75
2022/04/14 09:10:52;;;;;;;0.65;0.65;;;30.90;91.00;;;;;;5124054;28;20051;-75
2022/04/14 09:13:20;;;;;;;2.65;0.52;;;30.50;90.90;;;;;;5129117;28;20103;-75
2022/04/14 09:15:47;;;;;;;4.50;0.73;;;30.70;90.70;;;;;;5119416;28;20089;-75
2022/04/14 09:18:14;;;;;;;0.50;0.50;;;30.60;90.70;;;;;;5116760;28;20057;-75
2022/04/14 09:20:42;;;;;;;0.80;0.80;;;30.50;91.10;;;;;;5117043;28;20028;-73
2022/04/14 09:23:15;;;;;;;3.22;0.85;;;30.60;90.80;;;;;;5115402;28;20024;-73
2022/04/14 09:25:42;;;;;;;11.32;1.30;;;30.50;90.00;;;;;;5124329;28;20039;-72
2022/04/14 09:28:13;;;;;;;5.97;0.95;;;30.50;90.40;;;;;;5119543;28;20027;-74
2022/04/14 09:30:40;;;;;;;0.70;0.70;;;30.40;90.10;;;;;;5106929;28;20115;-75
2022/04/14 09:33:15;;;;;;;0.60;0.60;;;30.20;89.40;;;;;;5095923;28;20522;-72
2022/04/14 09:35:41;;;;;;;1.92;0.57;;;30.50;90.30;;;;;;5095332;28;20047;-72
2022/04/14 09:38:07;;;;;;;2.75;0.65;;;30.20;90.30;;;;;;5093988;28;20068;-73
2022/04/14 09:40:37;;;;;;;0.82;0.77;;;30.50;90.30;;;;;;5094285;28;20035;-73
2022/04/14 09:43:04;;;;;;;10.68;1.10;;;30.60;89.50;;;;;;5094882;28;20031;-74
2022/04/14 09:45:30;;;;;;;0.60;0.60;;;31.10;88.80;;;;;;5093691;28;20074;-73
2022/04/14 09:48:10;;;;;;;2.05;0.60;;;31.20;88.60;;;;;;5110617;28;20038;-73
2022/04/14 09:50:43;;;;;;;0.70;0.70;;;30.70;88.80;;;;;;5112537;28;20026;-73
2022/04/14 09:53:21;;;;;;;0.50;0.50;;;30.50;88.80;;;;;;5105649;28;20040;-73
2022/04/14 09:55:49;;;;;;;0.75;0.75;;;30.00;89.80;;;;;;5093571;28;20020;-73
2022/04/14 09:58:17;;;;;;;1.98;0.90;;;30.30;89.50;;;;;;5093377;28;20024;-74
2022/04/14 10:00:50;;;;;;;1.08;0.75;;;29.90;90.00;;;;;;5103437;28;20020;-73
2022/04/14 10:03:20;;;;;;;0.88;0.88;;;29.80;90.00;;;;;;5098104;28;20035;-73
2022/04/14 10:05:50;;;;;;;3.97;1.48;;;29.50;89.90;;;;;;5093419;28;20047;-73
2022/04/14 10:08:16;;;;;;;2.53;0.90;;;29.60;90.60;;;;;;5105077;28;20039;-72
2022/04/14 10:10:47;;;;;;;1.02;0.93;;;29.80;89.90;;;;;;5092921;28;20103;-73
2022/04/14 10:13:17;;;;;;;0.73;0.60;;;30.00;87.00;;;;;;5089760;28;20051;-73
2022/04/14 10:15:45;;;;;;;1.27;0.70;;;29.80;87.90;;;;;;5099581;28;20056;-73
2022/04/14 10:18:13;;;;;;;2.58;0.63;;;30.10;88.30;;;;;;5091211;28;20494;-73
2022/04/14 10:20:41;;;;;;;0.50;0.50;;;29.60;88.80;;;;;;5101378;28;20023;-73
2022/04/14 10:23:11;;;;;;;1.27;0.75;;;30.20;89.30;;;;;;5093887;28;20376;-73
2022/04/14 10:25:38;;;;;;;0.47;0.47;;;30.50;88.80;;;;;;5092741;28;20469;-73
2022/04/14 10:28:15;;;;;;;2.47;1.25;;;30.20;88.70;;;;;;5094885;28;20067;-73
2022/04/14 10:30:46;;;;;;;1.27;0.82;;;29.90;87.30;;;;;;5094212;28;20036;-73
2022/04/14 10:33:12;;;;;;;1.03;0.57;;;29.50;89.10;;;;;;5105460;28;20031;-74
2022/04/14 10:35:38;;;;;;;1.55;1.25;;;29.20;88.80;;;;;;5085277;28;20262;-73
2022/04/14 10:38:22;;;;;;;0.77;0.77;;;28.90;88.60;;;;;;5092944;28;20028;-73
2022/04/14 10:41:19;;;;;;;0.73;0.57;;;28.10;90.10;;;;;;5108484;28;20097;-73
2022/04/14 10:43:46;;;;;;;0.68;0.50;;;27.70;90.30;;;;;;5107833;28;20518;-75
2022/04/14 10:46:16;;;;;;;1.50;0.47;;;27.30;89.90;;;;;;5087744;28;20127;-74
2022/04/14 10:48:44;;;;;;;0.52;0.52;;;26.90;90.80;;;;;;5070334;28;20095;-74
2022/04/14 10:51:29;;;;;;;0.70;0.70;;;26.90;91.10;;;;;;5070893;28;20032;-74
2022/04/14 10:54:03;;;;;;;0.70;0.70;;;27.00;91.10;;;;;;5070881;28;20021;-74
2022/04/14 10:56:38;;;;;;;1.20;0.32;;;27.30;91.40;;;;;;5070497;28;20340;-74
2022/04/14 10:59:19;;;;;;;1.55;0.95;;;27.40;90.40;;;;;;5076754;28;20031;-73
2022/04/14 11:04:30;;;;;;;0.20;0.20;;;26.60;90.40;;;;;;5075706;28;20455;-74
2022/04/14 11:07:16;;;;;;;7.03;0.65;;;26.20;92.00;;;;;;5076237;28;20037;-73
2022/04/14 11:09:48;;;;;;;1.50;0.40;;;26.10;92.00;;;;;;5091178;28;20036;-73
2022/04/14 11:12:32;;;;;;;;;;;26.30;91.30;;;;;;5054199;28;20136;-73
2022/04/14 11:15:02;;;;;;;0.73;0.73;;;26.20;91.90;;;;;;5052897;28;20383;-74
2022/04/14 11:17:33;;;;;;;2.65;0.38;;;26.10;92.50;;;;;;5057507;28;20048;-73
2022/04/14 11:20:21;;;;;;;0.65;0.17;;;25.60;91.80;;;;;;5069091;28;20036;-73
2022/04/14 11:23:20;;;;;;;0.30;0.30;;;25.40;91.90;;;;;;5069801;28;20028;-73
2022/04/14 11:25:51;;;;;;;0.20;0.20;;;25.30;92.40;;;;;;5071627;28;20082;-75
2022/04/14 11:28:33;;;;;;;0.43;0.43;;;25.20;93.10;;;;;;5069992;28;20032;-76
2022/04/14 11:31:19;;;;;;;1.60;1.02;;;25.30;93.30;;;;;;5070568;28;20497;-76
2022/04/14 11:33:47;;;;;;;0.20;0.15;;;25.20;92.90;;;;;;5061253;28;20522;-75
2022/04/14 11:36:20;;;;;;;0.30;0.30;;;25.10;92.40;;;;;;5071772;28;20074;-75
2022/04/14 11:38:53;;;;;;;0.38;0.38;;;25.30;93.30;;;;;;5070876;28;20048;-75
2022/04/14 11:41:30;;;;;;;1.08;0.90;;;25.10;93.00;;;;;;5072300;28;20055;-75
2022/04/14 11:43:56;;;;;;;4.78;0.40;;;25.30;92.60;;;;;;5070686;28;20029;-75
2022/04/14 11:46:23;;;;;;;0.10;0.10;;;25.10;93.00;;;;;;5084790;28;20059;-76
2022/04/14 11:48:49;;;;;;;0.40;0.28;;;24.80;93.20;;;;;;5077672;28;20024;-74
2022/04/14 11:51:16;;;;;;;2.92;0.47;;;24.60;92.60;;;;;;5075304;28;20040;-74
2022/04/14 11:53:43;;;;;;;0.28;0.28;;;24.60;93.00;;;;;;5079061;28;20091;-75
2022/04/14 11:56:16;;;;;;;1.08;0.30;;;24.50;92.70;;;;;;5076156;28;20112;-75
2022/04/14 11:58:43;;;;;;;6.93;0.35;;;24.40;93.00;;;;;;5072149;28;20471;-74
2022/04/14 12:01:09;;;;;;;2.13;0.17;;;24.40;93.20;;;;;;5073750;28;20028;-74
2022/04/14 12:03:34;;;;;;;0.20;0.20;;;24.40;93.30;;;;;;5068636;28;20454;-74
2022/04/14 12:06:09;;;;;;;1.00;0.75;;;24.30;93.80;;;;;;5070056;28;20071;-74
2022/04/14 12:08:35;;;;;;;1.75;0.30;;;24.30;93.10;;;;;;5072578;28;20024;-75
2022/04/14 12:11:11;;;;;;;0.55;0.38;;;24.20;93.30;;;;;;5077965;28;20035;-75
2022/04/14 12:13:38;;;;;;;0.28;0.20;;;24.50;94.90;;;;;;5071356;28;20029;-74
2022/04/14 12:16:09;;;;;;;0.10;0.10;;;24.40;93.70;;;;;;5069693;28;20455;-74
2022/04/14 12:18:37;;;;;;;0.10;0.10;;;24.60;95.40;;;;;;5072985;28;20017;-74
2022/04/14 12:21:06;;;;;;;0.20;0.20;;;24.30;94.20;;;;;;5072523;28;20036;-75
2022/04/14 12:23:32;;;;;;;0.10;0.10;;;24.30;94.10;;;;;;5070312;28;20028;-74
2022/04/14 12:26:03;;;;;;;1.08;0.20;;;24.60;93.80;;;;;;5069831;28;20446;-75
2022/04/14 12:28:29;;;;;;;0.00;0.00;;;24.60;94.40;;;;;;5069150;28;20466;-74
2022/04/14 12:30:54;;;;;;;0.08;0.08;;;24.80;94.00;;;;;;5070134;28;20147;-73
2022/04/14 12:33:27;;;;;;;0.20;0.20;;;24.60;92.70;;;;;;5069201;28;20056;-76
2022/04/14 12:36:05;;;;;;;0.05;0.05;;;24.40;92.90;;;;;;5070171;28;20016;-73
2022/04/14 12:38:44;;;;;;;1.08;0.25;;;24.30;93.30;;;;;;5070518;28;20058;-73
2022/04/14 12:41:19;;;;;;;0.10;0.10;;;24.00;93.50;;;;;;5091142;28;20032;-73
2022/04/14 12:43:47;;;;;;;0.10;0.10;;;24.20;93.30;;;;;;5092103;28;20025;-74
2022/04/14 12:46:26;;;;;;;0.20;0.20;;;23.70;93.50;;;;;;5111403;28;20032;-73
2022/04/14 12:49:22;;;;;;;0.08;0.08;;;23.70;94.30;;;;;;5095240;28;20039;-73
2022/04/14 12:52:03;;;;;;;0.10;0.10;;;23.80;94.60;;;;;;5086553;28;20043;-75
2022/04/14 12:54:29;;;;;;;0.10;0.10;;;24.20;92.80;;;;;;5105914;28;20019;-75